Wrington, United Kingdom
Current Conditions -  °F | °C
As of 3:50 AM on Wednesday 22 Oct 2014 (Local Time) from EGGD Reporting Station
Clear Clear  
Wind Chill:   Ceiling: Unl
Heat Index:   Visibility: 6mi
Dew Point:   Wind: 20mph
Humidity: 81%   Direction: 270°W
Pressure: 30.27"   Gusts: NA
Location:  51.36°N, 2.76°W
Report Text: EGGD 220250Z 27017KT CAVOK 08/05 Q1025
Loading
Personal Weather Stations






























Interactive Weather Map
Tropical Storm Tracking
New forecast layout! Learn more

10-Day Weather Forecast

Advertisements
Track Severe Weather on mobile